Mahlon Sweet Field Eugene US
ICAO: KEUG
IATA: EUG
Category: Medium
Scheduled Services: Yes

Elevation: 374 ft
TransAlt. 18000 ft.

Airport Communications:
CASCADE APP/DEP:119.6
ATIS:125.225
EUGENE CLNC DEL:121.7
CTAF:118.9
GND:121.7
MC MINNVILLE RDO:122.3
EUGENE TWR:118.9
UNICOM:122.95

KEUG Zoom In..

Runways:

(A) RW 16L length 6000 ft width 150 ft
ILS 111.75 / hdg 163

(B) RW 16R length 8009 ft width 150 ft
ILS 110.10 / hdg 163

(C) RW 34L length 8009 ft width 150 ft
---- / hdg 343

(D) RW 34R length 6000 ft width 150 ft
---- / hdg 343

Location; KEUG
Day. 23 / Time. 21.54 Zulu
* Altimeter: 29.99
* Temperature: 08° c. 46.4°f.
* Wind from: 180° Speed 11 kn.
Dewpoint: 06° c.
Visibility: 9 Statute Miles.
Clouds: Few 2500 ft.
Clouds: Broken 4100 ft.
Clouds: Overcast 4800 ft.
Conditions: Light Rain.

KEUG 232154Z 18011KT 9SM -RA FEW025 BKN041 OVC048 08/06 A2999 RMK AO2 RAE2055B54 SLP157 P0000 T00830056


Wind From 180°
Speed 11 kn.

YouTube Music Video
 
jpsmedia.com for Web Design  worldairports.se 2018   terms of use